createdAt,value
2023-03-06T01:10:25.063Z,500.00
2023-03-06T01:11:41.090Z,500.00
2023-03-06T01:12:24.854Z,500.00
2023-03-06T01:13:25.051Z,500.00
2023-03-06T01:14:24.825Z,500.00
2023-03-06T01:16:46.051Z,500.00
2023-03-06T01:17:45.705Z,500.00
2023-03-06T01:20:37.917Z,500.00
2023-03-06T01:21:37.910Z,500.00
2023-03-06T01:30:58.800Z,500.00
2023-03-06T01:34:10.464Z,500.00
2023-03-06T01:35:26.100Z,500.00
2023-03-06T01:36:10.035Z,500.00
2023-03-06T01:37:09.850Z,500.00
2023-03-06T01:38:10.721Z,500.00
2023-03-06T01:39:11.790Z,500.00
2023-03-06T04:59:31.644Z,626.00
2023-03-06T05:06:31.645Z,635.00
2023-03-06T05:07:31.581Z,636.00
2023-03-06T05:13:31.637Z,844.00
2023-03-06T05:53:31.693Z,1728.00
2023-03-06T06:01:31.489Z,1708.00
2023-03-06T06:08:52.065Z,500.00
2023-03-06T06:09:55.498Z,500.00
2023-03-06T06:10:55.680Z,500.00
2023-03-06T06:11:55.430Z,500.00
2023-03-06T06:12:55.450Z,500.00
2023-03-06T06:13:55.427Z,500.00
2023-03-06T06:14:55.389Z,517.00
2023-03-06T06:15:55.385Z,535.00
2023-03-06T06:16:55.431Z,535.00
2023-03-06T06:17:55.318Z,534.00
2023-03-06T06:18:55.327Z,550.00
2023-03-06T06:19:55.360Z,554.00
2023-03-06T06:20:56.088Z,577.00
2023-03-06T06:21:55.292Z,608.00
2023-03-06T06:22:55.276Z,628.00
2023-03-06T06:23:55.288Z,644.00
2023-03-06T06:24:55.270Z,638.00
2023-03-06T06:25:55.267Z,656.00
2023-03-06T06:26:55.265Z,655.00
2023-03-06T06:27:55.351Z,646.00
2023-03-06T06:28:56.446Z,655.00
2023-03-06T06:29:55.237Z,644.00
2023-03-06T06:30:55.258Z,583.00
2023-03-06T06:31:55.253Z,599.00
2023-03-06T06:32:55.251Z,586.00
2023-03-06T06:33:55.218Z,570.00
2023-03-06T06:34:55.228Z,557.00
2023-03-06T06:35:56.082Z,539.00
2023-03-06T06:36:55.230Z,529.00
2023-03-06T06:37:55.349Z,529.00
2023-03-06T06:38:55.355Z,529.00
2023-03-06T06:39:55.452Z,505.00
2023-03-06T06:41:30.651Z,527.00
2023-03-06T06:42:09.971Z,521.00
2023-03-06T06:42:56.504Z,477.00
2023-03-06T06:43:57.114Z,413.00
2023-03-06T06:44:55.488Z,400.00
2023-03-06T08:17:57.453Z,500.00
2023-03-06T08:18:57.380Z,500.00
2023-03-06T08:19:57.209Z,500.00
2023-03-06T08:20:57.109Z,500.00
2023-03-06T08:22:00.137Z,500.00
2023-03-06T08:55:11.904Z,500.00
2023-03-06T09:41:31.706Z,455.00
2023-03-06T10:31:23.846Z,500.00
2023-03-06T10:36:21.025Z,500.00
2023-03-06T10:37:21.111Z,500.00
2023-03-06T10:38:20.596Z,500.00
2023-03-06T10:39:20.575Z,500.00
2023-03-06T10:40:20.337Z,500.00
2023-03-06T10:41:19.972Z,499.00
2023-03-06T10:42:19.983Z,466.00
2023-03-06T10:43:19.931Z,495.00
2023-03-06T10:44:19.918Z,511.00
2023-03-06T10:45:20.129Z,564.00
2023-03-06T10:46:19.928Z,661.00
2023-03-06T10:48:41.674Z,500.00
2023-03-06T10:49:41.366Z,500.00
2023-03-06T10:50:39.727Z,500.00
2023-03-06T10:51:40.335Z,500.00
2023-03-06T10:52:39.423Z,500.00
2023-03-06T10:53:39.440Z,500.00
2023-03-06T10:54:39.605Z,500.00
2023-03-06T10:55:39.393Z,522.00
2023-03-06T10:56:39.466Z,607.00
2023-03-06T10:57:39.439Z,510.00
2023-03-06T10:58:39.422Z,500.00
2023-03-06T10:59:39.454Z,400.00
2023-03-06T11:00:39.362Z,400.00
2023-03-06T11:01:39.458Z,400.00
2023-03-06T11:02:39.388Z,435.00
2023-03-06T11:03:39.457Z,467.00
2023-03-06T11:04:39.519Z,496.00
2023-03-06T11:05:39.464Z,572.00
2023-03-06T11:06:39.464Z,635.00
2023-03-06T11:08:59.092Z,500.00
2023-03-06T11:11:31.613Z,500.00
2023-03-06T11:12:19.963Z,500.00
2023-03-06T11:13:21.382Z,500.00
2023-03-06T13:17:21.672Z,500.00
2023-03-06T13:18:22.025Z,500.00
2023-03-06T13:19:21.549Z,500.00
2023-03-06T13:20:21.710Z,500.00
2023-03-06T13:21:21.456Z,500.00
2023-03-06T13:22:21.556Z,454.00
2023-03-06T13:23:21.477Z,533.00
2023-03-06T13:24:21.445Z,400.00
2023-03-06T13:25:21.531Z,455.00
2023-03-06T13:26:21.491Z,400.00
2023-03-06T13:27:21.732Z,449.00
2023-03-06T13:28:21.436Z,578.00
2023-03-06T13:29:21.406Z,501.00
2023-03-06T13:30:21.381Z,545.00
2023-03-06T13:31:27.215Z,645.00
2023-03-06T13:33:21.411Z,643.00
2023-03-06T13:34:21.395Z,517.00
2023-03-06T13:35:21.578Z,463.00
2023-03-06T13:36:21.445Z,522.00
2023-03-06T13:37:21.377Z,579.00
2023-03-06T13:38:21.369Z,500.00
2023-03-06T13:39:21.456Z,501.00
2023-03-06T13:40:21.624Z,500.00
2023-03-06T13:41:21.454Z,497.00
2023-03-06T13:42:21.404Z,476.00
2023-03-06T13:43:21.511Z,518.00
2023-03-06T13:45:41.230Z,500.00
2023-03-06T13:46:40.878Z,500.00
2023-03-06T13:48:06.450Z,500.00
2023-03-06T13:48:45.121Z,500.00
2023-03-06T13:49:40.744Z,500.00
2023-03-06T13:50:40.765Z,500.00
2023-03-06T13:51:40.686Z,500.00
2023-03-06T13:52:40.884Z,500.00
2023-03-06T13:53:40.857Z,500.00
2023-03-06T13:54:40.795Z,477.00
2023-03-06T13:55:40.917Z,549.00
2023-03-06T13:56:40.687Z,605.00
2023-03-06T13:57:40.877Z,718.00
2023-03-06T13:58:40.983Z,622.00
2023-03-06T13:59:40.761Z,490.00
2023-03-06T14:00:40.761Z,492.00
2023-03-06T14:01:40.926Z,618.00
2023-03-06T14:02:40.762Z,687.00
2023-03-06T14:03:40.803Z,638.00
2023-03-06T14:04:40.769Z,587.00
2023-03-06T14:05:40.967Z,513.00
2023-03-06T14:06:40.875Z,573.00
2023-03-06T14:07:40.964Z,551.00
2023-03-06T14:08:40.964Z,588.00
2023-03-06T14:09:40.976Z,633.00
2023-03-06T14:10:41.015Z,594.00
2023-03-06T14:11:41.033Z,581.00
2023-03-06T14:12:41.112Z,663.00
2023-03-06T14:13:47.200Z,671.00
2023-03-06T14:16:01.289Z,500.00
2023-03-06T14:17:00.830Z,500.00
2023-03-06T14:18:01.130Z,500.00
2023-03-06T14:19:00.655Z,500.00
2023-03-06T14:20:00.877Z,500.00
2023-03-06T14:21:00.733Z,518.00
2023-03-06T14:22:00.851Z,596.00
2023-03-06T14:23:01.588Z,648.00
2023-03-06T14:24:00.914Z,645.00
2023-03-06T14:25:00.602Z,635.00
2023-03-06T14:26:00.580Z,608.00
2023-03-06T14:27:00.575Z,535.00
2023-03-06T14:28:09.133Z,547.00
2023-03-06T14:29:01.812Z,549.00
2023-03-06T14:30:00.560Z,564.00
2023-03-06T14:31:00.718Z,582.00
2023-03-06T14:32:00.801Z,558.00
2023-03-06T14:33:00.530Z,478.00
2023-03-06T14:34:01.469Z,558.00
2023-03-06T14:35:00.588Z,632.00
2023-03-06T14:36:01.246Z,575.00
2023-03-06T14:52:19.926Z,563.00
2023-03-06T14:53:19.912Z,558.00
2023-03-06T14:54:19.934Z,564.00
2023-03-06T14:55:19.908Z,538.00
2023-03-06T14:56:19.917Z,622.00
2023-03-06T14:57:19.941Z,614.00
2023-03-06T14:58:19.914Z,743.00
2023-03-06T14:59:19.856Z,743.00
2023-03-06T15:00:19.988Z,728.00
2023-03-06T15:01:19.998Z,804.00
2023-03-06T15:02:20.001Z,701.00
2023-03-06T15:03:20.043Z,655.00
2023-03-06T15:04:20.090Z,639.00
2023-03-06T15:05:20.094Z,683.00
2023-03-06T15:06:20.155Z,599.00
2023-03-06T15:07:20.215Z,538.00
2023-03-06T15:08:20.174Z,573.00
2023-03-06T15:09:20.266Z,513.00
2023-03-06T15:10:20.307Z,544.00
2023-03-06T15:11:20.314Z,605.00
2023-03-06T15:12:20.353Z,575.00
2023-03-06T15:13:20.431Z,627.00
2023-03-06T15:14:20.431Z,641.00
2023-03-06T15:15:20.489Z,720.00
2023-03-06T15:16:20.542Z,812.00
2023-03-06T15:17:20.521Z,671.00
2023-03-06T15:18:20.561Z,581.00
2023-03-06T15:19:20.516Z,564.00
2023-03-06T15:20:20.584Z,604.00
2023-03-06T15:21:20.579Z,618.00
2023-03-06T15:22:20.589Z,598.00
2023-03-06T15:23:20.606Z,644.00
2023-03-06T15:24:21.135Z,710.00
2023-03-06T15:25:20.710Z,921.00
2023-03-06T15:26:20.716Z,984.00
2023-03-06T15:27:20.735Z,874.00
2023-03-06T15:28:20.746Z,970.00
2023-03-06T15:29:20.790Z,1099.00
2023-03-06T15:31:20.925Z,940.00
2023-03-06T15:32:20.928Z,1029.00
2023-03-06T15:33:21.097Z,968.00
2023-03-06T15:34:20.979Z,969.00
2023-03-06T15:35:20.983Z,1007.00
2023-03-06T15:36:21.016Z,1076.00
2023-03-06T15:37:20.985Z,835.00
2023-03-06T15:38:21.052Z,898.00
2023-03-06T15:44:21.090Z,959.00
2023-03-06T15:47:21.268Z,860.00
2023-03-06T15:49:21.278Z,933.00
2023-03-06T18:57:42.501Z,916.00
2023-03-06T18:58:42.533Z,880.00
2023-03-06T18:59:42.547Z,700.00
2023-03-06T19:00:42.494Z,705.00
2023-03-06T19:03:02.655Z,500.00
2023-03-06T19:04:03.080Z,500.00
2023-03-06T19:05:02.579Z,500.00
2023-03-06T19:06:02.564Z,500.00
2023-03-06T19:07:02.574Z,500.00
2023-03-06T19:08:02.543Z,523.00
2023-03-06T19:09:02.523Z,515.00
2023-03-06T19:10:02.565Z,530.00
2023-03-06T19:11:02.546Z,585.00
2023-03-06T19:12:02.510Z,520.00
2023-03-06T19:13:02.534Z,505.00
2023-03-06T19:14:02.525Z,464.00
2023-03-06T19:15:02.565Z,465.00
2023-03-06T19:16:02.535Z,490.00
2023-03-06T19:17:02.532Z,584.00
2023-03-06T19:18:02.477Z,661.00
2023-03-06T19:19:02.492Z,701.00
2023-03-06T19:20:02.505Z,627.00
2023-03-06T19:21:02.548Z,501.00
2023-03-06T19:22:02.528Z,505.00
2023-03-06T19:23:02.481Z,590.00
2023-03-06T19:24:02.439Z,565.00
2023-03-06T19:25:03.913Z,500.00
2023-03-06T19:26:02.449Z,485.00
2023-03-06T19:27:02.470Z,500.00
2023-03-06T19:28:02.423Z,507.00
2023-03-06T19:29:02.552Z,551.00
2023-03-06T19:30:02.447Z,550.00
2023-03-06T19:31:02.392Z,548.00
2023-03-06T19:32:02.504Z,603.00
2023-03-06T19:33:02.448Z,767.00
2023-03-06T19:34:02.365Z,1000.00
2023-03-06T19:35:02.391Z,1016.00
2023-03-06T19:53:21.996Z,539.00
2023-03-06T19:54:21.922Z,483.00
2023-03-06T19:55:22.031Z,443.00
2023-03-06T19:56:21.991Z,526.00
2023-03-06T19:57:21.975Z,619.00
2023-03-06T19:58:21.948Z,827.00
2023-03-06T19:59:21.965Z,1068.00
2023-03-06T20:00:21.954Z,666.00
2023-03-06T20:01:22.115Z,516.00
2023-03-06T20:02:21.883Z,484.00
2023-03-06T20:03:21.908Z,481.00
2023-03-06T20:04:21.943Z,426.00
2023-03-06T20:05:21.921Z,471.00
2023-03-06T20:06:21.896Z,515.00
2023-03-06T20:07:22.003Z,562.00
2023-03-06T20:08:21.899Z,514.00
2023-03-06T21:47:41.532Z,500.00
2023-03-06T21:48:42.148Z,500.00
2023-03-06T21:50:41.455Z,500.00
2023-03-06T21:51:41.686Z,500.00
2023-03-06T21:52:41.290Z,500.00
2023-03-06T21:53:41.330Z,500.00
2023-03-06T21:54:41.666Z,500.00
2023-03-06T21:55:41.298Z,494.00
2023-03-06T21:56:41.281Z,505.00
2023-03-06T21:57:41.270Z,513.00
2023-03-06T21:58:41.250Z,480.00
2023-03-06T21:59:41.408Z,503.00
2023-03-06T22:01:41.652Z,521.00
2023-03-06T22:02:41.553Z,400.00
2023-03-06T22:03:41.285Z,400.00
2023-03-06T22:04:41.321Z,400.00
2023-03-06T22:05:41.442Z,400.00
2023-03-06T22:06:41.750Z,400.00
2023-03-06T22:07:42.183Z,431.00
2023-03-06T22:08:41.222Z,446.00
2023-03-06T22:09:41.221Z,470.00
2023-03-06T22:10:41.221Z,547.00
2023-03-06T22:11:41.194Z,552.00
2023-03-06T22:12:41.229Z,541.00
2023-03-06T22:13:41.199Z,509.00
2023-03-06T23:08:16.919Z,500.00
2023-03-06T23:09:16.901Z,500.00
2023-03-06T23:10:16.897Z,500.00
2023-03-06T23:11:16.905Z,500.00
2023-03-06T23:29:16.403Z,500.00
2023-03-06T23:30:16.328Z,500.00
2023-03-06T23:31:16.909Z,500.00
2023-03-06T23:32:16.367Z,500.00
2023-03-06T23:33:16.258Z,500.00
2023-03-06T23:34:16.223Z,503.00
2023-03-06T23:35:16.271Z,504.00
2023-03-06T23:36:16.311Z,524.00
2023-03-06T23:37:16.222Z,525.00
2023-03-06T23:38:16.214Z,570.00
2023-03-06T23:39:16.180Z,610.00
2023-03-06T23:40:16.213Z,569.00
2023-03-06T23:41:16.235Z,591.00
2023-03-06T23:42:16.192Z,608.00
2023-03-06T23:43:16.187Z,755.00
2023-03-06T23:44:16.143Z,990.00
2023-03-06T23:45:16.220Z,925.00
2023-03-06T23:46:16.237Z,745.00
2023-03-06T23:49:09.555Z,500.00
2023-03-06T23:50:09.719Z,500.00
